createdAt,value
2023-03-07T00:01:04.608Z,2.40
2023-03-07T00:03:31.784Z,2.22
2023-03-07T00:06:02.603Z,2.65
2023-03-07T00:08:29.551Z,2.53
2023-03-07T00:10:56.318Z,2.58
2023-03-07T00:13:23.171Z,2.22
2023-03-07T00:15:50.160Z,2.15
2023-03-07T00:18:17.017Z,2.40
2023-03-07T00:20:44.518Z,2.50
2023-03-07T00:23:11.257Z,2.25
2023-03-07T00:25:37.861Z,2.40
2023-03-07T00:28:04.578Z,2.55
2023-03-07T00:30:31.553Z,2.30
2023-03-07T00:32:58.087Z,2.70
2023-03-07T00:35:24.654Z,2.17
2023-03-07T00:37:51.273Z,2.38
2023-03-07T00:40:18.116Z,2.13
2023-03-07T00:42:44.822Z,2.10
2023-03-07T00:45:13.722Z,2.13
2023-03-07T00:47:40.492Z,2.60
2023-03-07T00:50:07.152Z,2.13
2023-03-07T00:52:33.930Z,2.00
2023-03-07T00:55:00.719Z,2.60
2023-03-07T00:57:27.408Z,2.10
2023-03-07T00:59:53.960Z,2.33
2023-03-07T01:02:20.458Z,2.20
2023-03-07T01:04:47.190Z,2.40
2023-03-07T01:07:13.715Z,2.35
2023-03-07T01:09:40.259Z,2.50
2023-03-07T01:12:07.594Z,2.50
2023-03-07T01:14:34.460Z,2.50
2023-03-07T01:17:00.992Z,2.35
2023-03-07T01:19:27.600Z,1.95
2023-03-07T01:21:54.190Z,2.00
2023-03-07T01:24:20.711Z,2.17
2023-03-07T01:26:48.482Z,2.33
2023-03-07T01:29:15.093Z,2.13
2023-03-07T01:31:42.667Z,1.85
2023-03-07T01:34:09.370Z,2.10
2023-03-07T01:36:36.707Z,2.40
2023-03-07T01:39:06.850Z,2.28
2023-03-07T01:41:37.120Z,2.17
2023-03-07T01:44:05.936Z,2.28
2023-03-07T01:46:32.400Z,2.05
2023-03-07T01:49:22.324Z,2.63
2023-03-07T01:51:51.019Z,1.88
2023-03-07T01:54:19.109Z,2.15
2023-03-07T01:56:46.696Z,2.28
2023-03-07T01:59:16.387Z,2.45
2023-03-07T02:01:43.694Z,2.20
2023-03-07T02:04:18.920Z,2.00
2023-03-07T02:06:45.530Z,2.22
2023-03-07T02:09:16.065Z,2.70
2023-03-07T02:11:43.655Z,2.30
2023-03-07T02:14:10.323Z,2.30
2023-03-07T02:16:38.785Z,2.42
2023-03-07T02:19:11.514Z,2.28
2023-03-07T02:21:56.752Z,1.85
2023-03-07T02:24:32.624Z,2.33
2023-03-07T02:26:59.295Z,2.47
2023-03-07T02:29:26.006Z,2.22
2023-03-07T02:31:52.589Z,2.15
2023-03-07T02:34:29.760Z,2.17
2023-03-07T02:37:08.097Z,2.30
2023-03-07T02:39:34.666Z,2.03
2023-03-07T02:42:04.106Z,2.20
2023-03-07T02:44:30.646Z,1.95
2023-03-07T02:46:57.411Z,2.20
2023-03-07T02:49:24.244Z,2.20
2023-03-07T02:51:50.795Z,2.10
2023-03-07T02:54:17.321Z,2.20
2023-03-07T02:56:44.466Z,2.00
2023-03-07T02:59:11.427Z,2.40
2023-03-07T03:01:38.011Z,2.35
2023-03-07T03:04:04.949Z,1.80
2023-03-07T03:06:31.485Z,2.30
2023-03-07T03:08:58.027Z,2.08
2023-03-07T03:11:24.662Z,2.10
2023-03-07T03:13:51.522Z,1.90
2023-03-07T03:16:18.377Z,2.38
2023-03-07T03:18:45.171Z,2.50
2023-03-07T03:21:11.822Z,1.90
2023-03-07T03:23:38.387Z,2.15
2023-03-07T03:26:07.837Z,2.03
2023-03-07T03:28:35.103Z,1.95
2023-03-07T03:31:02.607Z,2.08
2023-03-07T03:33:32.322Z,2.05
2023-03-07T03:35:59.377Z,2.28
2023-03-07T03:38:26.435Z,2.30
2023-03-07T03:40:53.322Z,2.20
2023-03-07T03:43:19.881Z,2.13
2023-03-07T03:45:53.924Z,2.10
2023-03-07T03:48:20.401Z,2.15
2023-03-07T03:50:46.954Z,2.00
2023-03-07T03:53:13.451Z,2.13
2023-03-07T03:55:40.263Z,2.00
2023-03-07T03:58:06.811Z,2.30
2023-03-07T04:00:33.372Z,2.08
2023-03-07T04:03:00.008Z,1.90
2023-03-07T04:05:26.781Z,2.20
2023-03-07T04:07:53.310Z,2.17
2023-03-07T04:10:19.817Z,2.10
2023-03-07T04:12:47.177Z,2.30
2023-03-07T04:15:13.999Z,1.88
2023-03-07T04:17:40.577Z,2.05
2023-03-07T04:20:11.181Z,1.80
2023-03-07T04:22:37.737Z,2.00
2023-03-07T04:25:04.541Z,2.00
2023-03-07T04:27:31.114Z,2.20
2023-03-07T04:29:57.676Z,1.63
2023-03-07T04:32:24.313Z,1.90
2023-03-07T04:34:50.996Z,1.90
2023-03-07T04:37:17.586Z,1.98
2023-03-07T04:39:44.226Z,1.77
2023-03-07T04:42:10.854Z,1.88
2023-03-07T04:44:37.551Z,1.60
2023-03-07T04:47:04.267Z,1.77
2023-03-07T04:49:30.818Z,2.15
2023-03-07T04:51:57.380Z,2.10
2023-03-07T04:54:24.157Z,2.17
2023-03-07T04:56:50.727Z,2.10
2023-03-07T04:59:17.357Z,1.80
2023-03-07T05:01:44.257Z,2.05
2023-03-07T05:04:11.141Z,1.80
2023-03-07T05:06:37.777Z,2.30
2023-03-07T05:09:05.048Z,1.98
2023-03-07T05:11:31.846Z,1.95
2023-03-07T05:13:58.607Z,1.92
2023-03-07T05:16:25.301Z,1.92
2023-03-07T05:18:52.030Z,1.92
2023-03-07T05:21:18.757Z,1.45
2023-03-07T05:23:45.379Z,2.15
2023-03-07T05:26:12.123Z,2.03
2023-03-07T05:28:38.903Z,1.73
2023-03-07T05:31:05.841Z,1.90
2023-03-07T05:33:32.579Z,1.90
2023-03-07T05:36:01.159Z,1.85
2023-03-07T05:38:28.036Z,1.80
2023-03-07T05:40:54.838Z,1.90
2023-03-07T05:43:21.577Z,1.70
2023-03-07T05:45:48.339Z,1.77
2023-03-07T05:48:15.047Z,1.88
2023-03-07T05:50:43.002Z,1.98
2023-03-07T05:53:09.779Z,1.65
2023-03-07T05:55:36.799Z,1.73
2023-03-07T05:58:03.560Z,1.80
2023-03-07T06:00:30.530Z,2.08
2023-03-07T06:02:57.286Z,1.80
2023-03-07T06:05:25.443Z,1.80
2023-03-07T06:07:52.240Z,1.90
2023-03-07T06:10:19.059Z,2.00
2023-03-07T06:12:49.606Z,1.92
2023-03-07T06:15:16.377Z,1.83
2023-03-07T06:17:43.220Z,1.70
2023-03-07T06:20:10.483Z,1.85
2023-03-07T06:22:38.395Z,2.00
2023-03-07T06:25:05.847Z,2.00
2023-03-07T06:27:36.263Z,2.05
2023-03-07T06:30:03.863Z,1.98
2023-03-07T06:32:30.807Z,2.10
2023-03-07T06:34:57.561Z,1.70
2023-03-07T06:37:24.358Z,2.13
2023-03-07T06:39:51.160Z,1.63
2023-03-07T06:42:17.798Z,1.38
2023-03-07T06:44:44.481Z,2.00
2023-03-07T06:47:11.082Z,1.77
2023-03-07T06:49:37.721Z,1.92
2023-03-07T06:52:04.623Z,2.15
2023-03-07T06:54:31.363Z,1.85
2023-03-07T06:56:58.220Z,1.80
2023-03-07T06:59:24.960Z,2.10
2023-03-07T07:01:51.925Z,2.28
2023-03-07T07:04:18.621Z,1.83
2023-03-07T07:06:45.304Z,1.95
2023-03-07T07:09:13.190Z,2.05
2023-03-07T07:11:39.806Z,1.60
2023-03-07T07:14:06.349Z,2.30
2023-03-07T07:16:34.165Z,2.20
2023-03-07T07:19:00.798Z,2.20
2023-03-07T07:21:27.478Z,1.40
2023-03-07T07:23:56.418Z,2.13
2023-03-07T07:26:24.884Z,2.20
2023-03-07T07:28:51.679Z,2.45
2023-03-07T07:31:18.448Z,2.72
2023-03-07T07:33:46.739Z,2.10
2023-03-07T07:36:13.840Z,2.10
2023-03-07T07:38:40.720Z,2.42
2023-03-07T07:41:07.530Z,2.40
2023-03-07T07:43:34.505Z,2.45
2023-03-07T07:46:03.339Z,2.30
2023-03-07T07:48:30.150Z,2.53
2023-03-07T07:51:00.285Z,2.40
2023-03-07T07:53:27.263Z,2.28
2023-03-07T07:55:54.224Z,2.50
2023-03-07T07:58:21.546Z,2.50
2023-03-07T08:00:48.325Z,2.63
2023-03-07T08:03:15.081Z,2.45
2023-03-07T08:05:48.941Z,2.30
2023-03-07T08:08:16.547Z,2.22
2023-03-07T08:10:44.428Z,2.70
2023-03-07T08:13:14.537Z,2.10
2023-03-07T08:15:41.555Z,2.30
2023-03-07T08:18:08.747Z,2.30
2023-03-07T08:20:36.670Z,2.60
2023-03-07T08:23:03.850Z,2.42
2023-03-07T08:25:30.696Z,2.33
2023-03-07T08:27:58.659Z,2.45
2023-03-07T08:30:26.990Z,2.42
2023-03-07T08:32:54.683Z,2.40
2023-03-07T08:35:21.569Z,2.40
2023-03-07T08:37:52.321Z,2.60
2023-03-07T08:40:19.217Z,2.75
2023-03-07T08:42:46.001Z,2.40
2023-03-07T08:45:12.990Z,2.80
2023-03-07T08:47:40.221Z,2.63
2023-03-07T08:50:07.146Z,2.20
2023-03-07T08:52:34.094Z,2.10
2023-03-07T08:55:00.762Z,2.53
2023-03-07T08:57:27.638Z,2.45
2023-03-07T08:59:54.327Z,2.50
2023-03-07T09:02:21.025Z,2.20
2023-03-07T09:04:47.756Z,2.10
2023-03-07T09:07:14.627Z,2.60
2023-03-07T09:09:41.299Z,2.30
2023-03-07T09:12:08.060Z,2.50
2023-03-07T09:14:34.868Z,2.53
2023-03-07T09:17:01.658Z,2.38
2023-03-07T09:19:28.708Z,2.47
2023-03-07T09:21:55.702Z,2.25
2023-03-07T09:24:22.562Z,2.00
2023-03-07T09:26:49.404Z,2.25
2023-03-07T09:29:17.252Z,2.40
2023-03-07T09:31:44.588Z,2.47
2023-03-07T09:34:11.542Z,2.35
2023-03-07T09:36:38.441Z,2.20
2023-03-07T09:39:05.524Z,2.38
2023-03-07T09:41:48.389Z,2.67
2023-03-07T09:44:18.244Z,2.28
2023-03-07T09:47:04.068Z,2.35
2023-03-07T09:49:38.425Z,2.35
2023-03-07T09:52:11.044Z,2.45
2023-03-07T09:55:00.261Z,2.45
2023-03-07T09:57:34.370Z,2.17
2023-03-07T10:00:07.378Z,2.35
2023-03-07T10:02:45.609Z,3.35
2023-03-07T10:05:22.815Z,3.30
2023-03-07T10:07:49.691Z,2.72
2023-03-07T10:10:35.166Z,3.25
2023-03-07T10:13:04.887Z,3.13
2023-03-07T10:15:45.821Z,3.28
2023-03-07T10:18:20.771Z,3.08
2023-03-07T10:21:13.780Z,3.30
2023-03-07T10:23:55.904Z,2.85
2023-03-07T10:26:22.546Z,2.95
2023-03-07T10:28:49.206Z,2.22
2023-03-07T10:31:17.944Z,2.90
2023-03-07T10:33:47.211Z,2.20
2023-03-07T10:36:21.461Z,2.80
2023-03-07T10:38:57.685Z,4.88
2023-03-07T10:41:24.542Z,2.92
2023-03-07T10:43:52.802Z,2.63
2023-03-07T10:46:26.289Z,2.53
2023-03-07T10:48:55.661Z,2.40
2023-03-07T10:51:27.980Z,2.78
2023-03-07T10:53:56.387Z,4.30
2023-03-07T10:56:23.178Z,4.93
2023-03-07T10:59:02.225Z,20.65
2023-03-07T11:01:29.654Z,9.30
2023-03-07T11:04:05.291Z,6.40
2023-03-07T11:06:40.326Z,4.88
2023-03-07T11:09:11.239Z,4.78
2023-03-07T11:11:38.365Z,4.75
2023-03-07T11:14:05.241Z,4.40
2023-03-07T11:16:31.890Z,4.35
2023-03-07T11:18:58.755Z,4.80
2023-03-07T11:21:28.392Z,5.05
2023-03-07T11:24:18.440Z,7.57
2023-03-07T11:26:45.118Z,11.88
2023-03-07T11:29:13.340Z,6.20
2023-03-07T11:31:39.937Z,4.38
2023-03-07T11:34:09.637Z,4.18
2023-03-07T11:36:37.721Z,3.70
2023-03-07T11:39:04.498Z,8.45
2023-03-07T11:41:32.289Z,5.32
2023-03-07T11:44:19.575Z,4.38
2023-03-07T11:47:04.216Z,3.70
2023-03-07T11:49:39.656Z,4.18
2023-03-07T11:52:15.957Z,3.65
2023-03-07T11:54:42.698Z,3.60
2023-03-07T11:57:27.391Z,3.03
2023-03-07T12:00:03.631Z,3.38
2023-03-07T12:02:47.048Z,2.80
2023-03-07T12:05:21.079Z,3.40
2023-03-07T12:07:57.364Z,3.00
2023-03-07T12:10:42.785Z,2.88
2023-03-07T12:13:09.426Z,3.20
2023-03-07T12:15:36.024Z,2.70
2023-03-07T12:18:16.184Z,2.45
2023-03-07T12:21:14.963Z,2.78
2023-03-07T12:23:47.285Z,2.70
2023-03-07T12:26:17.144Z,3.22
2023-03-07T12:28:52.649Z,2.95
2023-03-07T12:31:28.402Z,2.75
2023-03-07T12:34:14.871Z,2.60
2023-03-07T12:36:52.638Z,2.72
2023-03-07T12:39:25.431Z,2.47
2023-03-07T12:41:51.984Z,2.58
2023-03-07T12:44:30.846Z,2.33
2023-03-07T12:47:02.146Z,2.30
2023-03-07T12:49:47.846Z,2.42
2023-03-07T12:52:34.060Z,2.75
2023-03-07T12:55:20.702Z,2.00
2023-03-07T12:57:56.475Z,2.53
2023-03-07T13:00:30.680Z,2.28
2023-03-07T13:03:02.107Z,2.50
2023-03-07T13:05:32.521Z,2.25
2023-03-07T13:07:59.640Z,2.28
2023-03-07T13:10:26.643Z,2.20
2023-03-07T13:12:53.963Z,2.65
2023-03-07T13:15:21.140Z,2.20
2023-03-07T13:17:47.661Z,2.50
2023-03-07T13:20:20.153Z,2.17
2023-03-07T13:22:46.655Z,1.90
2023-03-07T13:25:27.313Z,2.55
2023-03-07T13:27:54.218Z,2.15
2023-03-07T13:30:21.725Z,2.33
2023-03-07T13:32:49.580Z,2.20
2023-03-07T13:35:31.272Z,2.15
2023-03-07T13:38:04.695Z,2.10
2023-03-07T13:40:48.961Z,2.00
2023-03-07T13:43:27.589Z,2.22
2023-03-07T13:46:02.270Z,2.20
2023-03-07T13:48:28.976Z,2.30
2023-03-07T13:50:55.467Z,2.35
2023-03-07T13:53:30.300Z,2.10
2023-03-07T13:56:15.276Z,2.40
2023-03-07T13:58:47.956Z,2.05
2023-03-07T14:01:17.343Z,2.10
2023-03-07T14:03:56.039Z,1.90
2023-03-07T14:06:28.561Z,2.17
2023-03-07T14:08:55.258Z,1.92
2023-03-07T14:11:24.769Z,2.25
2023-03-07T14:14:00.050Z,1.98
2023-03-07T14:16:35.523Z,1.95
2023-03-07T14:19:02.086Z,1.90
2023-03-07T14:21:55.242Z,2.10
2023-03-07T14:24:36.989Z,1.63
2023-03-07T14:27:04.806Z,2.10
2023-03-07T14:29:31.606Z,1.95
2023-03-07T14:31:59.513Z,1.92
2023-03-07T14:34:35.697Z,2.05
2023-03-07T14:37:05.378Z,2.03
2023-03-07T14:39:38.147Z,2.30
2023-03-07T14:42:28.785Z,2.00
2023-03-07T14:45:10.161Z,2.78
2023-03-07T14:47:53.132Z,2.35
2023-03-07T14:50:25.765Z,2.30
2023-03-07T14:52:56.183Z,2.60
2023-03-07T14:55:24.453Z,2.53
2023-03-07T14:57:53.229Z,2.45
2023-03-07T15:00:24.906Z,2.65
2023-03-07T15:02:51.562Z,2.33
2023-03-07T15:05:20.240Z,2.28
2023-03-07T15:07:48.131Z,2.20
2023-03-07T15:10:27.276Z,2.05
2023-03-07T15:12:54.799Z,2.35
2023-03-07T15:15:24.345Z,1.60
2023-03-07T15:17:52.820Z,2.40
2023-03-07T15:20:19.422Z,2.20
2023-03-07T15:22:46.477Z,2.90
2023-03-07T15:25:25.784Z,2.00
2023-03-07T15:28:04.487Z,2.05
2023-03-07T15:30:37.084Z,2.30
2023-03-07T15:33:05.935Z,2.10
2023-03-07T15:35:33.509Z,1.98
2023-03-07T15:38:07.492Z,2.13
2023-03-07T15:40:35.591Z,2.25
2023-03-07T15:43:05.301Z,2.20
2023-03-07T15:45:35.000Z,2.03
2023-03-07T15:48:08.248Z,1.95
2023-03-07T15:50:49.025Z,2.00
2023-03-07T15:53:23.387Z,2.00
2023-03-07T15:55:58.760Z,1.90
2023-03-07T15:58:27.149Z,2.08
2023-03-07T16:01:12.154Z,1.95
2023-03-07T16:03:47.770Z,1.80
2023-03-07T16:06:43.786Z,1.95
2023-03-07T16:09:14.526Z,2.05
2023-03-07T16:11:41.596Z,1.70
2023-03-07T16:14:27.729Z,1.52
2023-03-07T16:16:55.849Z,1.60
2023-03-07T16:19:22.651Z,1.67
2023-03-07T16:21:49.291Z,1.70
2023-03-07T16:24:16.108Z,1.73
2023-03-07T16:26:43.846Z,1.83
2023-03-07T16:29:17.404Z,1.80
2023-03-07T16:31:44.296Z,1.67
2023-03-07T16:34:14.302Z,1.80
2023-03-07T16:36:42.998Z,1.90
2023-03-07T16:39:10.381Z,2.08
2023-03-07T16:41:38.900Z,5.80
2023-03-07T16:44:05.740Z,13.50
2023-03-07T16:46:34.600Z,5.07
2023-03-07T16:49:01.120Z,4.53
2023-03-07T16:51:29.960Z,4.28
2023-03-07T16:53:56.942Z,3.60
2023-03-07T16:56:26.648Z,3.55
2023-03-07T16:58:53.529Z,3.35
2023-03-07T17:01:20.128Z,3.10
2023-03-07T17:03:46.761Z,2.92
2023-03-07T17:06:14.942Z,2.50
2023-03-07T17:08:41.567Z,2.90
2023-03-07T17:11:18.542Z,2.22
2023-03-07T17:13:46.182Z,2.30
2023-03-07T17:16:14.734Z,2.60
2023-03-07T17:18:44.765Z,2.25
2023-03-07T17:21:15.532Z,2.33
2023-03-07T17:23:44.143Z,2.45
2023-03-07T17:26:18.224Z,2.30
2023-03-07T17:28:45.279Z,2.33
2023-03-07T17:31:11.835Z,2.10
2023-03-07T17:33:38.718Z,1.92
2023-03-07T17:36:05.484Z,2.10
2023-03-07T17:38:32.183Z,2.22
2023-03-07T17:40:59.143Z,2.22
2023-03-07T17:43:25.705Z,2.20
2023-03-07T17:45:52.310Z,2.00
2023-03-07T17:48:18.884Z,2.20
2023-03-07T17:50:45.442Z,2.28
2023-03-07T17:53:12.565Z,2.00
2023-03-07T17:55:39.185Z,2.25
2023-03-07T17:58:12.440Z,2.35
2023-03-07T18:00:39.112Z,1.98
2023-03-07T18:03:05.772Z,2.08
2023-03-07T18:05:32.484Z,2.30
2023-03-07T18:07:59.150Z,2.15
2023-03-07T18:10:25.763Z,2.75
2023-03-07T18:12:53.727Z,2.08
2023-03-07T18:15:21.846Z,2.22
2023-03-07T18:17:49.461Z,2.28
2023-03-07T18:20:19.874Z,2.58
2023-03-07T18:22:46.808Z,2.40
2023-03-07T18:25:14.507Z,2.30
2023-03-07T18:27:41.164Z,2.55
2023-03-07T18:30:07.961Z,2.10
2023-03-07T18:32:34.835Z,2.45
2023-03-07T18:35:01.507Z,2.70
2023-03-07T18:37:28.739Z,1.80
2023-03-07T18:39:55.652Z,2.03
2023-03-07T18:42:22.324Z,2.30
2023-03-07T18:44:48.897Z,2.33
2023-03-07T18:47:15.622Z,2.25
2023-03-07T18:49:42.415Z,2.45
2023-03-07T18:52:08.920Z,2.65
2023-03-07T18:54:35.457Z,2.55
2023-03-07T18:57:02.142Z,2.38
2023-03-07T18:59:28.756Z,2.72
2023-03-07T19:01:55.486Z,2.40
2023-03-07T19:04:22.069Z,2.40
2023-03-07T19:06:48.703Z,2.33
2023-03-07T19:09:16.460Z,2.22
2023-03-07T19:11:43.281Z,1.70
2023-03-07T19:14:09.901Z,2.50
2023-03-07T19:16:36.446Z,2.28
2023-03-07T19:19:04.035Z,2.38
2023-03-07T19:21:30.993Z,2.38
2023-03-07T19:23:59.341Z,2.55
2023-03-07T19:26:26.101Z,2.17
2023-03-07T19:28:53.725Z,2.40
2023-03-07T19:31:21.802Z,2.50
2023-03-07T19:33:49.342Z,2.40
2023-03-07T19:36:17.109Z,2.22
2023-03-07T19:38:43.780Z,2.75
2023-03-07T19:41:12.424Z,2.20
2023-03-07T19:43:39.142Z,2.60
2023-03-07T19:46:06.975Z,2.60
2023-03-07T19:48:34.516Z,2.88
2023-03-07T19:51:01.661Z,2.63
2023-03-07T19:53:28.408Z,2.40
2023-03-07T19:55:55.039Z,2.78
2023-03-07T19:58:21.662Z,2.20
2023-03-07T20:00:48.205Z,2.58
2023-03-07T20:03:18.890Z,2.45
2023-03-07T20:05:48.375Z,2.70
2023-03-07T20:08:15.981Z,2.47
2023-03-07T20:10:43.082Z,2.28
2023-03-07T20:13:09.834Z,3.05
2023-03-07T20:15:36.777Z,2.88
2023-03-07T20:18:06.027Z,2.70
2023-03-07T20:20:35.717Z,2.70
2023-03-07T20:23:02.331Z,2.67
2023-03-07T20:25:48.325Z,2.60
2023-03-07T20:28:15.916Z,2.53
2023-03-07T20:30:42.793Z,2.92
2023-03-07T20:33:09.686Z,2.95
2023-03-07T20:35:36.254Z,3.00
2023-03-07T20:38:02.837Z,2.55
2023-03-07T20:40:29.380Z,2.70
2023-03-07T20:42:55.944Z,2.90
2023-03-07T20:45:22.518Z,2.80
2023-03-07T20:47:49.039Z,2.88
2023-03-07T20:50:17.212Z,2.72
2023-03-07T20:52:43.829Z,3.08
2023-03-07T20:55:10.519Z,2.60
2023-03-07T20:57:37.082Z,2.85
2023-03-07T21:00:04.403Z,2.80
2023-03-07T21:02:30.926Z,2.97
2023-03-07T21:04:57.444Z,3.20
2023-03-07T21:07:24.124Z,3.10
2023-03-07T21:09:51.257Z,3.30
2023-03-07T21:12:18.098Z,3.00
2023-03-07T21:14:44.704Z,3.05
2023-03-07T21:17:12.725Z,3.17
2023-03-07T21:19:39.322Z,2.95
2023-03-07T21:22:06.222Z,3.53
2023-03-07T21:24:32.782Z,3.35
2023-03-07T21:26:59.486Z,3.58
2023-03-07T21:29:26.120Z,3.70
2023-03-07T21:31:54.102Z,3.50
2023-03-07T21:34:20.699Z,3.83
2023-03-07T21:36:48.126Z,3.35
2023-03-07T21:39:15.100Z,3.95
2023-03-07T21:41:41.701Z,3.90
2023-03-07T21:44:08.443Z,3.42
2023-03-07T21:46:35.322Z,3.65
2023-03-07T21:49:02.020Z,3.55
2023-03-07T21:51:29.074Z,3.80
2023-03-07T21:53:55.683Z,3.67
2023-03-07T21:56:23.915Z,3.42
2023-03-07T21:58:50.858Z,4.10
2023-03-07T22:01:21.780Z,3.80
2023-03-07T22:03:51.086Z,3.40
2023-03-07T22:06:17.826Z,3.70
2023-03-07T22:08:44.465Z,3.78
2023-03-07T22:11:11.781Z,3.42
2023-03-07T22:13:39.579Z,3.55
2023-03-07T22:16:08.000Z,3.42
2023-03-07T22:18:35.269Z,2.95
2023-03-07T22:21:08.793Z,3.35
2023-03-07T22:23:35.494Z,3.45
2023-03-07T22:26:03.993Z,3.70
2023-03-07T22:28:30.633Z,3.60
2023-03-07T22:31:00.624Z,3.08
2023-03-07T22:33:27.102Z,3.63
2023-03-07T22:36:00.419Z,5.03
2023-03-07T22:38:26.974Z,6.65
2023-03-07T22:40:53.522Z,7.93
2023-03-07T22:43:20.122Z,8.90
2023-03-07T22:45:48.660Z,15.18
2023-03-07T22:48:16.084Z,6.95
2023-03-07T22:50:42.744Z,5.80
2023-03-07T22:53:09.247Z,4.45
2023-03-07T22:55:42.702Z,4.38
2023-03-07T22:58:09.794Z,4.20
2023-03-07T23:00:37.181Z,6.22
2023-03-07T23:03:03.886Z,6.95
2023-03-07T23:05:31.611Z,4.78
2023-03-07T23:07:58.690Z,4.30
2023-03-07T23:10:26.026Z,4.32
2023-03-07T23:12:52.592Z,3.97
2023-03-07T23:15:19.331Z,4.03
2023-03-07T23:17:46.712Z,3.70
2023-03-07T23:20:13.830Z,3.63
2023-03-07T23:22:42.780Z,3.67
2023-03-07T23:25:09.613Z,3.60
2023-03-07T23:27:36.120Z,3.33
2023-03-07T23:30:02.931Z,3.67
2023-03-07T23:32:29.535Z,3.90
2023-03-07T23:34:56.060Z,3.40
2023-03-07T23:37:22.602Z,3.55
2023-03-07T23:39:49.122Z,3.20
2023-03-07T23:42:17.011Z,3.25
2023-03-07T23:44:43.502Z,3.22
2023-03-07T23:47:10.380Z,3.15
2023-03-07T23:49:36.941Z,3.40
2023-03-07T23:52:03.545Z,3.10
2023-03-07T23:54:30.033Z,2.80
2023-03-07T23:56:56.589Z,2.88
2023-03-07T23:59:23.100Z,3.28
